Time;durP1;ratioP1;P1;durP2;ratioP2;P2;SDS_P1;SDS_P2;PMS_P1;PMS_P2;Temp;Humidity;BMP_temperature;BMP_pressure;BME280_temperature;BME280_humidity;BME280_pressure;Samples;Min_cycle;Max_cycle;Signal;HPM_P1;HPM_P2
2022/10/26 00:01:08;;;;;;;0.63;0.63;;;;;;;20.56;42.77;95545.59;5089538;28;20548;-61
2022/10/26 00:03:36;;;;;;;1.83;1.50;;;;;;;20.45;42.91;95538.94;5091046;28;20455;-62
2022/10/26 00:06:24;;;;;;;1.20;1.07;;;;;;;20.19;43.38;95530.72;5100475;28;20512;-59
2022/10/26 00:08:51;;;;;;;0.50;0.50;;;;;;;20.85;42.21;95528.09;5093834;28;20456;-60
2022/10/26 00:11:18;;;;;;;0.83;0.83;;;;;;;20.79;42.35;95531.97;5095547;28;20532;-59
2022/10/26 00:13:46;;;;;;;2.13;1.80;;;;;;;20.53;42.36;95533.66;5102916;28;20437;-60
2022/10/26 00:16:16;;;;;;;0.57;0.30;;;;;;;20.49;42.71;95539.91;5102072;28;20470;-59
2022/10/26 00:18:43;;;;;;;0.13;0.13;;;;;;;20.55;42.57;95539.47;5095242;28;20445;-60
2022/10/26 00:21:11;;;;;;;0.30;0.30;;;;;;;20.17;43.30;95530.22;5095837;28;20555;-60
2022/10/26 00:23:38;;;;;;;0.27;0.27;;;;;;;20.05;43.73;95530.72;5099005;28;21004;-60
2022/10/26 00:26:05;;;;;;;0.57;0.57;;;;;;;20.29;43.24;95525.16;5095862;28;20519;-60
2022/10/26 00:28:32;;;;;;;0.30;0.30;;;;;;;20.07;43.68;95531.19;5101807;28;20437;-60
2022/10/26 00:31:02;;;;;;;2.47;1.87;;;;;;;20.26;43.20;95528.44;5094030;28;20444;-60
2022/10/26 00:33:29;;;;;;;0.73;0.73;;;;;;;20.45;42.67;95539.72;5090952;28;20441;-60
2022/10/26 00:35:56;;;;;;;0.97;0.97;;;;;;;20.46;42.34;95538.63;5095711;28;20467;-60
2022/10/26 00:38:22;;;;;;;1.53;1.27;;;;;;;20.20;42.87;95532.28;5092362;28;20437;-61
2022/10/26 00:40:49;;;;;;;0.60;0.60;;;;;;;20.17;43.04;95535.56;5092563;28;20461;-60
2022/10/26 00:43:22;;;;;;;3.30;1.40;;;;;;;19.91;43.64;95540.59;5107054;28;20444;-59
2022/10/26 00:45:52;;;;;;;0.33;0.33;;;;;;;20.18;43.21;95529.16;5099645;28;20923;-60
2022/10/26 00:48:24;;;;;;;0.40;0.40;;;;;;;20.29;42.78;95530.47;5089377;28;20966;-59
2022/10/26 00:50:53;;;;;;;0.77;0.77;;;;;;;20.37;42.59;95532.44;5095930;28;20436;-59
2022/10/26 00:53:20;;;;;;;0.20;0.20;;;;;;;20.32;42.62;95537.88;5106205;28;20501;-60
2022/10/26 00:55:50;;;;;;;0.27;0.27;;;;;;;20.35;42.34;95526.63;5097558;28;20463;-60
2022/10/26 00:58:18;;;;;;;0.57;0.57;;;;;;;20.48;42.01;95528.47;5093750;28;20441;-59
2022/10/26 01:00:45;;;;;;;0.40;0.40;;;;;;;20.37;42.23;95524.44;5095896;28;20531;-60
2022/10/26 01:03:11;;;;;;;0.87;0.87;;;;;;;20.42;42.36;95529.66;5089278;28;20449;-59
2022/10/26 01:05:42;;;;;;;0.10;0.10;;;;;;;20.58;41.86;95522.91;5098416;28;20476;-59
2022/10/26 01:08:10;;;;;;;1.17;1.07;;;;;;;20.12;42.64;95519.69;5095411;28;20471;-60
2022/10/26 01:10:39;;;;;;;5.73;2.00;;;;;;;20.25;42.63;95518.09;5097779;28;20874;-62
2022/10/26 01:13:06;;;;;;;0.20;0.20;;;;;;;19.62;44.01;95526.03;5104298;28;20468;-60
2022/10/26 01:15:47;;;;;;;0.60;0.60;;;;;;;20.06;43.10;95521.66;5099372;28;20455;-61
2022/10/26 01:18:42;;;;;;;0.53;0.53;;;;;;;19.52;44.05;95532.38;5105642;28;20462;-61
2022/10/26 01:21:24;;;;;;;1.63;0.87;;;;;;;19.90;43.04;95517.75;5087378;28;20448;-60
2022/10/26 01:24:25;;;;;;;0.33;0.33;;;;;;;19.78;43.36;95530.00;5103319;28;20474;-60
2022/10/26 01:27:16;;;;;;;0.70;0.70;;;;;;;19.94;43.24;95517.94;5099657;28;20558;-61
2022/10/26 01:30:00;;;;;;;1.17;1.07;;;;;;;20.06;43.00;95518.19;5104688;28;20499;-60
2022/10/26 01:32:58;;;;;;;0.10;0.10;;;;;;;20.16;42.96;95521.41;5096867;28;20444;-60
2022/10/26 01:35:36;;;;;;;1.90;0.77;;;;;;;20.13;42.97;95521.22;5103533;28;20526;-60
2022/10/26 01:38:10;;;;;;;0.90;0.87;;;;;;;19.96;43.03;95516.53;5097586;28;20514;-60
2022/10/26 01:40:51;;;;;;;1.50;0.60;;;;;;;20.25;42.64;95513.56;5094179;28;20448;-60
2022/10/26 01:43:19;;;;;;;0.43;0.43;;;;;;;20.29;42.62;95514.50;5107037;28;20748;-61
2022/10/26 01:45:47;;;;;;;0.53;0.53;;;;;;;20.27;42.47;95521.25;5096765;28;20580;-59
2022/10/26 01:48:19;;;;;;;9.73;1.33;;;;;;;20.44;42.12;95505.38;5099053;28;20547;-59
2022/10/26 01:50:49;;;;;;;3.20;1.43;;;;;;;20.36;42.85;95514.91;5092244;28;20946;-59
2022/10/26 01:53:18;;;;;;;2.37;1.20;;;;;;;20.37;42.63;95511.16;5097461;28;20923;-60
2022/10/26 01:55:51;;;;;;;0.97;0.97;;;;;;;20.32;42.75;95507.81;5103390;28;20535;-60
2022/10/26 01:58:33;;;;;;;2.00;0.90;;;;;;;20.40;42.56;95515.84;5099967;28;20536;-61
2022/10/26 02:01:22;;;;;;;0.97;0.97;;;;;;;20.44;42.29;95506.19;5095640;28;20456;-60
2022/10/26 02:04:05;;;;;;;0.27;0.27;;;;;;;20.39;42.66;95513.50;5100215;28;20436;-60
2022/10/26 02:07:14;;;;;;;0.70;0.70;;;;;;;20.33;42.76;95518.16;5096753;28;20485;-60
2022/10/26 02:09:45;;;;;;;0.20;0.20;;;;;;;20.04;43.57;95523.03;5102108;28;20532;-60
2022/10/26 02:12:25;;;;;;;1.63;1.50;;;;;;;19.52;44.27;95518.28;5093563;28;20460;-60
2022/10/26 02:15:02;;;;;;;2.03;0.97;;;;;;;19.34;44.05;95530.59;5089360;28;20441;-60
2022/10/26 02:17:39;;;;;;;2.03;1.90;;;;;;;19.44;43.96;95540.22;5091928;28;20456;-61
2022/10/26 02:20:12;;;;;;;1.17;1.17;;;;;;;19.21;44.28;95548.03;5097391;28;20440;-63
2022/10/26 02:22:44;;;;;;;0.27;0.27;;;;;;;19.12;44.34;95544.47;5094007;28;20935;-59
2022/10/26 02:25:34;;;;;;;0.47;0.47;;;;;;;19.00;44.67;95541.53;5094906;28;20441;-60
2022/10/26 02:28:15;;;;;;;0.30;0.30;;;;;;;18.90;44.82;95547.00;5092549;28;20521;-59
2022/10/26 02:30:44;;;;;;;1.20;1.17;;;;;;;18.89;44.90;95549.94;5098466;28;20493;-60
2022/10/26 02:33:13;;;;;;;1.80;1.43;;;;;;;18.85;44.97;95544.44;5093332;28;20536;-59
2022/10/26 02:35:44;;;;;;;1.43;1.33;;;;;;;18.78;44.96;95549.31;5089950;28;20505;-60
2022/10/26 02:38:13;;;;;;;0.97;0.87;;;;;;;18.55;45.42;95550.22;5092028;28;20452;-59
2022/10/26 02:40:41;;;;;;;0.40;0.40;;;;;;;18.70;45.19;95557.94;5095767;28;20437;-60
2022/10/26 02:43:12;;;;;;;1.13;1.03;;;;;;;18.74;44.83;95537.69;5099117;28;20449;-60
2022/10/26 02:45:50;;;;;;;1.30;1.20;;;;;;;18.54;45.15;95553.94;5101555;28;20482;-62
2022/10/26 02:48:17;;;;;;;0.47;0.47;;;;;;;18.48;45.92;95547.16;5100116;28;20481;-60
2022/10/26 02:50:52;;;;;;;0.83;0.63;;;;;;;18.60;45.27;95550.16;5106145;28;21188;-62
2022/10/26 02:53:30;;;;;;;0.67;0.67;;;;;;;18.58;45.16;95549.66;5094804;28;20872;-60
2022/10/26 02:56:06;;;;;;;0.93;0.93;;;;;;;18.56;45.15;95549.16;5095479;28;20448;-60
2022/10/26 02:58:39;;;;;;;1.10;0.93;;;;;;;18.40;45.42;95557.59;5103421;28;20817;-61
2022/10/26 03:01:07;;;;;;;2.27;1.13;;;;;;;18.30;46.03;95552.44;5094610;28;20484;-60
2022/10/26 03:03:34;;;;;;;0.97;0.97;;;;;;;18.34;45.82;95562.19;5101408;28;20532;-59
2022/10/26 03:06:01;;;;;;;1.53;1.43;;;;;;;18.37;45.50;95558.97;5093898;28;20967;-60
2022/10/26 03:08:28;;;;;;;0.47;0.40;;;;;;;17.95;46.41;95559.03;5099860;28;20486;-60
2022/10/26 03:10:59;;;;;;;1.50;0.73;;;;;;;18.01;46.36;95563.19;5098096;28;20488;-59
2022/10/26 03:13:26;;;;;;;0.33;0.33;;;;;;;17.97;46.96;95559.53;5099513;28;20910;-60
2022/10/26 03:15:58;;;;;;;2.10;1.17;;;;;;;18.36;45.91;95567.19;5096013;28;20810;-60
2022/10/26 03:18:25;;;;;;;2.67;1.67;;;;;;;18.17;46.36;95569.88;5102819;28;20480;-60
2022/10/26 03:20:52;;;;;;;1.30;1.03;;;;;;;18.23;46.44;95574.00;5096261;28;20449;-61
2022/10/26 03:23:19;;;;;;;1.10;1.03;;;;;;;18.06;46.23;95573.72;5102390;28;20547;-61
2022/10/26 03:25:47;;;;;;;2.07;1.80;;;;;;;18.11;46.45;95586.91;5090913;28;20453;-61
2022/10/26 03:28:14;;;;;;;1.23;1.20;;;;;;;17.95;46.71;95578.38;5102322;28;20481;-59
2022/10/26 03:30:41;;;;;;;4.47;1.13;;;;;;;18.11;46.62;95574.44;5091285;28;20465;-60
2022/10/26 03:33:08;;;;;;;0.80;0.80;;;;;;;17.72;48.28;95575.72;5096919;28;20445;-60
2022/10/26 03:35:35;;;;;;;3.50;1.63;;;;;;;17.88;48.39;95587.75;5101086;28;20444;-60
2022/10/26 03:38:01;;;;;;;0.20;0.20;;;;;;;18.22;47.96;95580.41;5100793;28;20801;-61
2022/10/26 03:40:28;;;;;;;0.33;0.33;;;;;;;18.42;47.23;95576.69;5097559;28;20563;-59
2022/10/26 03:42:55;;;;;;;0.53;0.53;;;;;;;18.51;47.29;95582.94;5093819;28;20453;-60
2022/10/26 03:45:22;;;;;;;2.63;0.63;;;;;;;18.48;47.71;95581.66;5097507;28;20476;-60
2022/10/26 03:47:49;;;;;;;2.93;1.40;;;;;;;18.34;47.86;95585.28;5098279;28;20484;-60
2022/10/26 03:50:18;;;;;;;0.67;0.67;;;;;;;18.62;47.59;95579.84;5098528;28;20444;-60
2022/10/26 03:52:46;;;;;;;0.60;0.60;;;;;;;18.53;47.60;95573.63;5098559;28;20483;-60
2022/10/26 03:55:14;;;;;;;0.60;0.50;;;;;;;18.89;46.98;95581.81;5099888;28;20806;-60
2022/10/26 03:57:42;;;;;;;0.67;0.57;;;;;;;18.65;47.69;95584.56;5099081;28;20447;-60
2022/10/26 04:00:14;;;;;;;2.10;1.13;;;;;;;18.88;46.94;95583.69;5090458;28;20506;-61
2022/10/26 04:02:47;;;;;;;1.63;1.53;;;;;;;18.75;46.81;95567.69;5094785;28;20564;-62
2022/10/26 04:05:15;;;;;;;0.27;0.27;;;;;;;18.48;47.95;95581.66;5099530;28;21022;-60
2022/10/26 04:07:42;;;;;;;1.17;0.97;;;;;;;18.49;47.47;95583.22;5092980;28;20588;-60
2022/10/26 04:10:09;;;;;;;1.47;1.37;;;;;;;18.30;47.42;95584.28;5090368;28;20525;-59
2022/10/26 04:12:37;;;;;;;2.13;1.27;;;;;;;18.26;47.05;95594.69;5102220;28;20444;-62
2022/10/26 04:15:05;;;;;;;1.20;0.90;;;;;;;18.35;46.37;95598.28;5103574;28;20537;-63
2022/10/26 04:17:33;;;;;;;1.13;1.13;;;;;;;17.80;46.64;95583.88;5099556;28;20436;-61
2022/10/26 04:20:00;;;;;;;1.27;1.17;;;;;;;17.82;46.51;95594.19;5097757;28;20440;-59
2022/10/26 04:22:27;;;;;;;3.27;1.67;;;;;;;17.95;46.37;95599.59;5101427;28;20440;-59
2022/10/26 04:24:53;;;;;;;1.67;1.57;;;;;;;18.02;46.41;95599.22;5092855;28;20896;-61
2022/10/26 04:27:21;;;;;;;0.10;0.10;;;;;;;17.74;46.56;95592.94;5096945;28;20478;-60
2022/10/26 04:29:47;;;;;;;1.70;1.60;;;;;;;17.63;46.71;95590.66;5096500;28;20572;-60
2022/10/26 04:32:14;;;;;;;1.63;1.53;;;;;;;17.49;47.43;95592.44;5095473;28;20441;-60
2022/10/26 04:34:41;;;;;;;1.17;1.07;;;;;;;17.33;47.02;95575.09;5110207;28;20903;-60
2022/10/26 04:37:08;;;;;;;0.63;0.63;;;;;;;17.15;47.89;95611.78;5110010;28;20505;-60
2022/10/26 04:39:35;;;;;;;0.80;0.80;;;;;;;17.43;47.46;95604.91;5109666;28;20440;-61
2022/10/26 04:42:01;;;;;;;2.10;1.37;;;;;;;17.00;47.87;95604.00;5100271;28;20458;-61
2022/10/26 04:44:28;;;;;;;3.00;2.13;;;;;;;17.11;48.20;95607.34;5104872;28;20510;-61
2022/10/26 04:46:55;;;;;;;0.60;0.60;;;;;;;17.37;47.24;95610.53;5100019;28;20484;-61
2022/10/26 04:49:22;;;;;;;1.50;1.40;;;;;;;17.34;47.03;95608.44;5091386;28;20528;-61
2022/10/26 04:51:49;;;;;;;0.63;0.63;;;;;;;17.10;48.14;95609.19;5092592;28;20473;-60
2022/10/26 04:54:16;;;;;;;2.73;2.53;;;;;;;17.44;47.46;95606.50;5101075;28;20445;-61
2022/10/26 04:56:43;;;;;;;6.40;5.77;;;;;;;17.64;47.22;95613.47;5101910;28;20527;-60
2022/10/26 04:59:10;;;;;;;11.10;4.13;;;;;;;17.71;46.59;95613.91;5109894;28;20436;-60
2022/10/26 05:01:36;;;;;;;2.00;1.20;;;;;;;17.13;47.64;95619.22;5109780;28;21012;-59
2022/10/26 05:04:03;;;;;;;2.93;2.70;;;;;;;17.01;48.21;95625.94;5106867;28;20530;-61
2022/10/26 05:06:31;;;;;;;1.60;1.23;;;;;;;16.82;48.26;95628.47;5098316;28;20559;-64
2022/10/26 05:08:59;;;;;;;3.80;0.63;;;;;;;17.03;47.77;95623.81;5094288;28;20453;-62
2022/10/26 05:11:25;;;;;;;3.60;2.70;;;;;;;17.07;48.13;95623.00;5096800;28;20485;-59
2022/10/26 05:13:52;;;;;;;1.00;0.90;;;;;;;17.23;47.00;95629.75;5095915;28;20525;-62
2022/10/26 05:16:19;;;;;;;0.67;0.67;;;;;;;16.93;47.48;95624.69;5108883;28;20440;-61
2022/10/26 05:18:49;;;;;;;3.37;2.13;;;;;;;16.86;48.20;95629.50;5109580;28;20451;-63
2022/10/26 05:21:18;;;;;;;10.33;5.90;;;;;;;17.24;47.16;95631.31;5095252;28;20486;-61
2022/10/26 05:23:51;;;;;;;14.47;12.10;;;;;;;17.12;48.23;95628.25;5109324;28;20893;-60
2022/10/26 05:26:19;;;;;;;3.50;2.60;;;;;;;16.81;49.50;95634.03;5090682;28;20468;-61
2022/10/26 05:28:45;;;;;;;0.97;0.97;;;;;;;16.35;50.60;95633.50;5089072;28;20441;-59
2022/10/26 05:31:13;;;;;;;1.37;1.27;;;;;;;16.25;50.74;95641.53;5090636;28;20746;-60
2022/10/26 05:33:39;;;;;;;1.00;1.00;;;;;;;16.63;49.79;95645.28;5108654;28;20506;-60
2022/10/26 05:36:07;;;;;;;0.67;0.67;;;;;;;16.71;49.56;95648.16;5108014;27;20452;-60
2022/10/26 05:38:34;;;;;;;1.20;1.03;;;;;;;16.75;49.36;95649.19;5099465;28;20954;-60
2022/10/26 05:41:01;;;;;;;9.10;2.60;;;;;;;16.57;50.18;95649.81;5094498;28;20451;-60
2022/10/26 05:43:29;;;;;;;0.97;0.90;;;;;;;16.71;50.28;95653.47;5086589;28;20899;-60
2022/10/26 05:45:55;;;;;;;3.10;2.10;;;;;;;16.90;49.54;95661.50;5100634;28;20867;-60
2022/10/26 05:48:22;;;;;;;1.33;1.23;;;;;;;16.63;50.81;95667.25;5086674;28;20491;-60
2022/10/26 05:50:49;;;;;;;1.10;1.10;;;;;;;17.04;49.35;95657.97;5088611;28;20460;-61
2022/10/26 05:53:17;;;;;;;0.30;0.30;;;;;;;16.80;50.27;95667.69;5101008;28;20471;-60
2022/10/26 05:55:45;;;;;;;7.00;2.33;;;;;;;16.89;49.53;95671.34;5094679;28;20856;-60
2022/10/26 05:58:13;;;;;;;4.53;2.03;;;;;;;17.03;49.37;95674.94;5109360;28;20440;-60
2022/10/26 06:01:00;;;;;;;1.67;1.57;;;;;;;17.33;49.00;95676.53;5106374;28;20433;-60
2022/10/26 06:03:42;;;;;;;0.83;0.83;;;;;;;17.54;48.29;95679.81;5100352;28;20478;-61
2022/10/26 06:06:12;;;;;;;1.23;1.23;;;;;;;17.58;48.25;95683.50;5108888;28;20448;-60
2022/10/26 06:08:39;;;;;;;4.27;1.87;;;;;;;17.51;48.31;95680.38;5109021;28;20502;-60
2022/10/26 06:11:06;;;;;;;0.73;0.70;;;;;;;17.37;49.10;95682.06;5104619;28;20441;-60
2022/10/26 06:13:33;;;;;;;0.50;0.50;;;;;;;17.34;49.15;95687.91;5099683;28;20440;-60
2022/10/26 06:16:22;;;;;;;3.30;1.60;;;;;;;17.35;49.26;95689.50;5108620;28;20476;-60
2022/10/26 06:18:51;;;;;;;0.53;0.53;;;;;;;17.38;48.70;95683.66;5108630;28;20923;-60
2022/10/26 06:21:49;;;;;;;0.70;0.70;;;;;;;16.96;49.87;95687.69;5104324;28;20440;-60
2022/10/26 06:24:28;;;;;;;1.97;0.90;;;;;;;17.52;49.56;95687.25;5081808;28;21021;-60
2022/10/26 06:27:13;;;;;;;1.03;0.87;;;;;;;17.26;49.97;95691.97;5092391;28;20468;-60
2022/10/26 06:29:45;;;;;;;0.93;0.93;;;;;;;17.70;49.07;95686.56;5091924;28;20502;-61
2022/10/26 06:32:12;;;;;;;0.93;0.93;;;;;;;17.66;48.92;95690.84;5102488;28;20481;-61
2022/10/26 06:34:43;;;;;;;2.00;1.70;;;;;;;17.69;49.23;95691.06;5112211;28;20479;-61
2022/10/26 06:37:11;;;;;;;1.40;1.30;;;;;;;17.80;49.09;95681.16;5112424;28;20880;-61
2022/10/26 06:39:43;;;;;;;3.27;2.20;;;;;;;18.22;48.21;95694.47;5112023;28;20447;-61
2022/10/26 06:42:10;;;;;;;0.83;0.83;;;;;;;18.55;47.43;95693.56;5098146;28;20472;-61
2022/10/26 06:44:38;;;;;;;1.03;1.03;;;;;;;18.42;47.63;95693.47;5092397;28;20448;-60
2022/10/26 06:47:15;;;;;;;0.80;0.80;;;;;;;18.07;48.83;95703.41;5104139;28;20574;-61
2022/10/26 06:50:02;;;;;;;1.43;1.33;;;;;;;17.83;49.87;95701.78;5098042;28;20479;-60
2022/10/26 06:52:52;;;;;;;4.87;2.00;;;;;;;18.52;48.08;95699.44;5097887;28;20472;-60
2022/10/26 06:55:20;;;;;;;2.27;1.30;;;;;;;18.10;49.66;95708.13;5111181;28;20440;-60
2022/10/26 06:57:48;;;;;;;0.40;0.40;;;;;;;18.21;49.27;95706.16;5091371;28;20429;-59
2022/10/26 07:00:19;;;;;;;2.40;2.10;;;;;;;18.82;47.83;95707.00;5091692;28;20441;-60
2022/10/26 07:02:49;;;;;;;3.67;2.93;;;;;;;18.76;47.88;95710.78;5097613;28;20489;-59
2022/10/26 07:05:16;;;;;;;1.50;1.27;;;;;;;17.96;49.81;95698.47;5111516;28;20950;-60
2022/10/26 07:07:46;;;;;;;2.47;1.87;;;;;;;18.46;48.76;95716.50;5106595;28;21014;-61
2022/10/26 07:10:14;;;;;;;0.53;0.53;;;;;;;19.06;47.61;95707.72;5103019;28;20440;-60
2022/10/26 07:12:41;;;;;;;1.33;1.00;;;;;;;19.06;47.42;95707.72;5111849;28;20535;-60
2022/10/26 07:15:08;;;;;;;3.50;1.33;;;;;;;18.49;48.56;95715.94;5112030;28;20501;-60
2022/10/26 07:17:44;;;;;;;0.43;0.43;;;;;;;18.58;49.49;95714.22;5111233;28;20504;-60
2022/10/26 07:20:11;;;;;;;0.80;0.80;;;;;;;19.23;47.74;95709.84;5111418;28;20475;-62
2022/10/26 07:22:38;;;;;;;1.47;1.37;;;;;;;18.94;48.09;95702.03;5109895;28;20499;-60
2022/10/26 07:25:06;;;;;;;0.90;0.90;;;;;;;18.69;49.22;95715.66;5090565;28;20521;-60
2022/10/26 07:27:34;;;;;;;1.13;1.00;;;;;;;19.29;47.41;95713.22;5105381;28;20522;-59
2022/10/26 07:30:01;;;;;;;5.53;1.27;;;;;;;19.12;47.63;95711.84;5096993;28;20439;-59
2022/10/26 07:32:29;;;;;;;0.97;0.97;;;;;;;19.12;48.38;95709.19;5111720;28;20444;-60
2022/10/26 07:34:55;;;;;;;0.90;0.90;;;;;;;19.29;47.69;95707.91;5106127;28;20425;-60
2022/10/26 07:37:22;;;;;;;1.13;1.03;;;;;;;19.35;48.14;95701.44;5090869;28;20437;-61
2022/10/26 07:39:49;;;;;;;1.63;1.00;;;;;;;19.56;47.20;95682.19;5093662;28;20950;-59
2022/10/26 07:42:16;;;;;;;1.17;1.10;;;;;;;19.79;47.35;95688.47;5097126;28;20448;-60
2022/10/26 07:44:43;;;;;;;0.40;0.40;;;;;;;20.34;46.16;95682.13;5110779;28;20534;-59
2022/10/26 07:47:10;;;;;;;1.80;1.43;;;;;;;20.77;44.50;95685.19;5097407;28;20495;-59
2022/10/26 07:49:36;;;;;;;2.10;1.47;;;;;;;20.60;44.35;95679.72;5095983;28;20542;-63
2022/10/26 07:52:03;;;;;;;1.13;1.03;;;;;;;20.60;45.13;95685.81;5096827;28;20444;-60
2022/10/26 07:54:31;;;;;;;0.63;0.63;;;;;;;20.94;43.86;95675.47;5103085;28;20440;-61
2022/10/26 07:56:58;;;;;;;0.70;0.60;;;;;;;20.59;45.22;95675.47;5090655;28;20449;-62
2022/10/26 07:59:25;;;;;;;1.37;1.23;;;;;;;21.25;43.43;95680.91;5111178;28;20446;-60
2022/10/26 08:01:52;;;;;;;0.40;0.40;;;;;;;21.45;43.17;95675.09;5098335;28;20445;-59
2022/10/26 08:04:19;;;;;;;0.90;0.87;;;;;;;21.74;42.58;95666.63;5090004;28;21052;-61
2022/10/26 08:06:47;;;;;;;0.57;0.57;;;;;;;21.96;41.93;95679.94;5101170;28;20996;-59
2022/10/26 08:09:14;;;;;;;0.40;0.40;;;;;;;21.98;42.09;95678.53;5107866;28;20558;-60
2022/10/26 08:11:41;;;;;;;0.87;0.67;;;;;;;22.05;42.17;95678.09;5090196;28;20477;-60
2022/10/26 08:14:09;;;;;;;1.47;1.37;;;;;;;22.61;40.89;95680.03;5104292;28;20205;-59
2022/10/26 08:16:39;;;;;;;3.97;1.43;;;;;;;22.26;41.56;95681.78;5089640;28;20528;-61
2022/10/26 08:19:06;;;;;;;0.20;0.20;;;;;;;22.63;40.42;95673.25;5089639;28;20203;-61
2022/10/26 08:21:33;;;;;;;1.30;0.90;;;;;;;22.38;41.38;95665.94;5089813;28;20275;-60
2022/10/26 08:24:06;;;;;;;1.17;0.93;;;;;;;22.67;40.73;95668.88;5089655;28;20588;-60
2022/10/26 08:26:33;;;;;;;0.17;0.17;;;;;;;22.88;39.78;95669.03;5109423;28;20229;-60
2022/10/26 08:29:00;;;;;;;1.40;1.30;;;;;;;22.42;39.92;95656.22;5098096;28;20226;-60
2022/10/26 08:31:27;;;;;;;0.77;0.77;;;;;;;22.46;40.64;95667.88;5108275;28;20186;-59
2022/10/26 08:33:53;;;;;;;0.40;0.40;;;;;;;23.04;39.59;95667.47;5099674;28;20203;-60
2022/10/26 08:36:25;;;;;;;1.70;0.67;;;;;;;22.78;39.29;95664.78;5106124;28;20490;-59
2022/10/26 08:38:52;;;;;;;0.30;0.30;;;;;;;23.27;38.60;95670.75;5109985;28;20221;-62
2022/10/26 08:41:33;;;;;;;0.93;0.80;;;;;;;23.21;38.19;95666.69;5103174;28;20282;-60
2022/10/26 08:44:15;;;;;;;2.47;0.63;;;;;;;23.40;38.85;95664.47;5089284;28;20671;-60
2022/10/26 08:46:48;;;;;;;0.20;0.20;;;;;;;23.19;38.28;95663.53;5097856;28;20237;-60
2022/10/26 08:49:24;;;;;;;0.13;0.13;;;;;;;23.23;38.32;95664.47;5095197;28;20233;-60
2022/10/26 08:51:54;;;;;;;0.40;0.40;;;;;;;23.69;37.56;95665.38;5095566;28;20233;-60
2022/10/26 08:54:46;;;;;;;0.63;0.63;;;;;;;24.05;36.72;95670.28;5096322;28;20194;-61
2022/10/26 08:57:17;;;;;;;0.20;0.20;;;;;;;23.93;37.23;95667.50;5095143;28;20290;-61
2022/10/26 08:59:55;;;;;;;1.50;1.40;;;;;;;23.70;37.11;95652.78;5109728;28;20214;-60
2022/10/26 09:02:23;;;;;;;0.23;0.23;;;;;;;23.34;36.68;95673.78;5109938;28;20194;-60
2022/10/26 09:04:51;;;;;;;1.77;1.23;;;;;;;23.11;37.40;95673.13;5109635;28;20207;-62
2022/10/26 09:07:20;;;;;;;0.60;0.60;;;;;;;22.95;37.51;95669.38;5108674;28;20301;-61
2022/10/26 09:10:24;;;;;;;0.70;0.70;;;;;;;23.77;36.84;95663.78;5101542;28;20195;-61
2022/10/26 09:13:25;;;;;;;0.33;0.33;;;;;;;24.61;35.98;95661.03;5108407;28;20194;-61
2022/10/26 09:16:30;;;;;;;0.53;0.53;;;;;;;24.88;35.78;95660.56;5094885;28;20198;-60
2022/10/26 09:19:41;;;;;;;1.03;0.93;;;;;;;24.60;37.05;95665.59;5109567;28;20622;-60
2022/10/26 09:22:23;;;;;;;2.10;1.00;;;;;;;25.20;35.30;95656.38;5092805;28;20579;-59
2022/10/26 09:25:00;;;;;;;0.20;0.20;;;;;;;25.28;34.85;95652.81;5109606;28;20194;-59
2022/10/26 09:27:42;;;;;;;0.87;0.50;;;;;;;25.30;34.29;95650.59;5095655;28;20276;-63
2022/10/26 09:30:14;;;;;;;0.30;0.30;;;;;;;25.32;33.28;95648.38;5096669;28;20189;-60
2022/10/26 09:32:46;;;;;;;0.10;0.10;;;;;;;25.26;33.85;95649.66;5094613;28;20195;-60
2022/10/26 09:35:42;;;;;;;0.50;0.50;;;;;;;25.87;32.11;95659.50;5109184;28;20190;-61
2022/10/26 09:38:32;;;;;;;1.40;1.20;;;;;;;25.59;32.87;95653.19;5109054;28;20202;-59
2022/10/26 09:41:04;;;;;;;0.50;0.50;;;;;;;25.59;33.09;95653.19;5096614;28;20195;-60
2022/10/26 09:43:43;;;;;;;0.93;0.93;;;;;;;25.60;32.80;95649.38;5098514;28;20194;-60
2022/10/26 09:46:17;;;;;;;0.23;0.23;;;;;;;25.52;32.86;95644.88;5090534;28;20320;-62
2022/10/26 09:49:09;;;;;;;0.20;0.20;;;;;;;25.03;34.21;95644.69;5108914;28;20214;-60
2022/10/26 09:51:38;;;;;;;0.43;0.43;;;;;;;25.64;33.54;95651.06;5097777;28;20199;-61
2022/10/26 09:54:16;;;;;;;0.30;0.30;;;;;;;25.85;32.29;95645.63;5104079;27;20191;-61
2022/10/26 09:56:46;;;;;;;0.57;0.57;;;;;;;26.16;31.06;95640.53;5095289;28;20287;-61
2022/10/26 09:59:16;;;;;;;0.10;0.10;;;;;;;25.89;31.88;95641.16;5101141;28;20214;-60
2022/10/26 10:01:44;;;;;;;0.27;0.27;;;;;;;25.12;32.14;95636.56;5104171;28;20197;-61
2022/10/26 10:04:18;;;;;;;0.60;0.60;;;;;;;25.51;32.39;95635.28;5104639;28;20657;-62
2022/10/26 10:07:11;;;;;;;1.73;1.07;;;;;;;25.52;32.45;95631.47;5093714;28;20281;-60
2022/10/26 10:09:38;;;;;;;0.43;0.43;;;;;;;25.94;30.95;95619.47;5101073;28;20249;-61
2022/10/26 10:12:17;;;;;;;0.50;0.50;;;;;;;26.30;30.92;95622.16;5096020;28;20388;-61
2022/10/26 10:14:56;;;;;;;0.13;0.13;;;;;;;25.43;30.54;95622.72;5110412;28;20191;-60
2022/10/26 10:17:24;;;;;;;0.10;0.10;;;;;;;25.93;30.76;95625.94;5104737;27;20672;-60
2022/10/26 10:19:51;;;;;;;0.20;0.20;;;;;;;26.13;30.79;95618.94;5111332;28;20651;-61
2022/10/26 10:22:23;;;;;;;0.50;0.50;;;;;;;26.25;30.15;95619.72;5112288;28;20244;-61
2022/10/26 10:24:58;;;;;;;0.37;0.37;;;;;;;26.41;29.93;95612.53;5097835;28;20682;-59
2022/10/26 10:27:27;;;;;;;0.20;0.20;;;;;;;26.24;30.18;95604.69;5106230;28;20656;-60
2022/10/26 10:29:55;;;;;;;0.20;0.20;;;;;;;25.95;30.10;95612.97;5108928;28;20194;-60
2022/10/26 10:32:30;;;;;;;3.50;0.40;;;;;;;26.08;30.38;95611.88;5103197;27;20190;-60
2022/10/26 10:35:22;;;;;;;0.10;0.10;;;;;;;26.06;30.21;95602.59;5108580;28;20284;-60
2022/10/26 10:37:50;;;;;;;0.10;0.10;;;;;;;25.84;30.63;95601.09;5104307;27;20199;-61
2022/10/26 10:40:21;;;;;;;0.50;0.40;;;;;;;26.38;30.08;95588.25;5096528;28;20199;-62
2022/10/26 10:42:50;;;;;;;0.37;0.37;;;;;;;26.10;30.08;95585.47;5097751;28;20199;-62
2022/10/26 10:45:23;;;;;;;0.53;0.47;;;;;;;26.21;30.03;95593.84;5094987;28;20196;-61
2022/10/26 10:48:11;;;;;;;0.23;0.23;;;;;;;26.00;30.39;95599.31;5095597;28;20223;-59
2022/10/26 10:50:56;;;;;;;0.20;0.20;;;;;;;25.92;30.53;95597.53;5100159;28;20217;-64
2022/10/26 10:53:31;;;;;;;0.40;0.40;;;;;;;25.78;29.93;95592.47;5103595;27;20626;-62
2022/10/26 10:56:20;;;;;;;0.20;0.20;;;;;;;25.95;30.13;95586.88;5097712;28;20934;-61
2022/10/26 10:58:56;;;;;;;3.07;1.20;;;;;;;26.11;30.49;95583.56;5106519;28;20214;-60
2022/10/26 11:01:29;;;;;;;0.10;0.10;;;;;;;25.91;29.84;95586.00;5107806;28;20884;-62
2022/10/26 11:04:41;;;;;;;0.87;0.73;;;;;;;25.86;29.64;95582.75;5101128;27;20660;-63
2022/10/26 11:07:10;;;;;;;0.40;0.20;;;;;;;26.23;30.20;95570.13;5091164;28;20794;-60
2022/10/26 11:09:41;;;;;;;0.30;0.30;;;;;;;26.63;29.55;95566.34;5095228;27;20318;-60
2022/10/26 11:12:17;;;;;;;0.20;0.20;;;;;;;26.72;29.50;95572.41;5102577;27;20205;-61
2022/10/26 11:14:51;;;;;;;0.47;0.47;;;;;;;26.83;29.42;95568.13;5105477;28;20213;-62
2022/10/26 11:18:06;;;;;;;0.57;0.57;;;;;;;26.72;29.50;95567.03;5105543;27;20196;-61
2022/10/26 11:20:38;;;;;;;1.67;1.37;;;;;;;26.91;29.53;95559.13;5098502;28;20206;-59
2022/10/26 11:23:20;;;;;;;0.40;0.40;;;;;;;26.88;28.31;95565.16;5103548;28;20198;-63
2022/10/26 11:26:03;;;;;;;4.63;0.60;;;;;;;27.05;28.67;95569.47;5091923;28;20198;-60
2022/10/26 11:28:39;;;;;;;1.67;1.00;;;;;;;26.91;29.23;95559.13;5101175;28;20249;-61
2022/10/26 11:31:12;;;;;;;0.30;0.30;;;;;;;27.00;29.29;95567.03;5100644;28;20206;-62
2022/10/26 11:34:19;;;;;;;4.70;0.80;;;;;;;26.61;28.86;95565.91;5104778;28;20195;-60
2022/10/26 11:36:53;;;;;;;0.30;0.30;;;;;;;26.59;28.76;95557.41;5066902;28;20210;-61
2022/10/26 11:39:32;;;;;;;0.60;0.60;;;;;;;27.02;28.49;95564.78;5099393;27;20283;-61
2022/10/26 11:42:17;;;;;;;0.30;0.30;;;;;;;26.99;28.24;95555.50;5090766;28;20214;-61
2022/10/26 11:44:52;;;;;;;0.13;0.13;;;;;;;26.91;28.56;95548.38;5118096;27;20199;-62
2022/10/26 11:47:45;;;;;;;0.13;0.13;;;;;;;27.39;27.50;95557.34;5104581;28;20317;-62
2022/10/26 11:50:20;;;;;;;0.20;0.20;;;;;;;27.66;27.58;95545.72;5105751;28;20263;-62
2022/10/26 11:52:55;;;;;;;0.20;0.20;;;;;;;27.48;27.20;95539.13;5093459;27;20672;-61
2022/10/26 11:55:22;;;;;;;1.13;0.57;;;;;;;28.55;26.49;95541.28;5107919;28;20798;-61
2022/10/26 11:57:52;;;;;;;0.37;0.30;;;;;;;28.90;25.94;95531.97;5102240;27;20187;-61
2022/10/26 12:00:21;;;;;;;0.20;0.20;;;;;;;28.75;26.11;95534.75;5094626;28;20657;-61